Time;durP1;ratioP1;P1;durP2;ratioP2;P2;SDS_P1;SDS_P2;PMS_P1;PMS_P2;Temp;Humidity;BMP_temperature;BMP_pressure;BME280_temperature;BME280_humidity;BME280_pressure;Samples;Min_cycle;Max_cycle;Signal;HPM_P1;HPM_P2
2023/10/22 00:01:44;;;;;;;8.25;1.88;;;12.20;99.90;;;;;;6310945;22;20015;-91
2023/10/22 00:04:09;;;;;;;6.32;1.77;;;13.50;99.90;;;;;;6315965;22;20060;-90
2023/10/22 00:06:42;;;;;;;7.57;1.70;;;13.20;99.90;;;;;;6312313;22;20061;-90
2023/10/22 00:09:17;;;;;;;8.20;1.80;;;12.80;99.90;;;;;;6314282;22;20011;-91
2023/10/22 00:14:30;;;;;;;8.60;2.10;;;11.90;99.90;;;;;;6308410;22;20424;-90
2023/10/22 00:17:03;;;;;;;11.57;1.92;;;12.30;99.90;;;;;;6280704;22;20054;-90
2023/10/22 00:19:40;;;;;;;7.47;1.60;;;12.20;99.90;;;;;;6281141;22;20019;-90
2023/10/22 00:22:21;;;;;;;6.75;1.60;;;12.30;99.90;;;;;;6280221;22;20023;-90
2023/10/22 00:24:57;;;;;;;7.68;1.80;;;13.90;99.90;;;;;;6282487;22;20019;-90
2023/10/22 00:27:26;;;;;;;7.80;1.83;;;13.80;99.90;;;;;;6283068;22;20019;-91
2023/10/22 00:29:52;;;;;;;5.57;1.60;;;13.50;99.90;;;;;;6281504;22;20018;-90
2023/10/22 00:32:18;;;;;;;5.63;1.60;;;12.60;99.90;;;;;;6283180;22;20011;-91
2023/10/22 00:34:59;;;;;;;6.32;1.80;;;14.00;99.90;;;;;;6296630;22;20077;-90
2023/10/22 00:37:35;;;;;;;7.75;1.60;;;14.20;99.90;;;;;;6292529;22;20015;-89
2023/10/22 00:40:01;;;;;;;7.07;1.55;;;13.40;99.90;;;;;;6287192;22;20064;-90
2023/10/22 00:42:42;;;;;;;10.45;1.70;;;13.70;99.90;;;;;;6281079;22;20023;-90
2023/10/22 00:45:07;;;;;;;8.95;1.75;;;13.60;99.90;;;;;;6280683;22;20069;-89
2023/10/22 00:47:50;;;;;;;6.60;1.90;;;12.80;99.90;;;;;;6280860;22;20015;-90
2023/10/22 00:50:18;;;;;;;6.22;1.70;;;12.90;99.90;;;;;;6279533;22;20019;-90
2023/10/22 00:52:44;;;;;;;6.32;1.50;;;12.80;99.90;;;;;;6280892;22;20086;-90
2023/10/22 00:55:13;;;;;;;5.85;1.67;;;12.90;99.90;;;;;;6279905;22;20092;-90
2023/10/22 00:57:39;;;;;;;9.60;1.90;;;14.30;99.90;;;;;;6279789;22;20107;-90
2023/10/22 01:00:15;;;;;;;5.95;1.55;;;13.70;99.90;;;;;;6280337;22;20469;-90
2023/10/22 01:02:41;;;;;;;6.90;1.65;;;13.00;99.90;;;;;;6281069;22;20011;-91
2023/10/22 01:05:08;;;;;;;6.70;1.60;;;14.20;99.90;;;;;;6280155;22;20398;-90
2023/10/22 01:07:37;;;;;;;7.47;1.40;;;13.00;99.90;;;;;;6281085;22;20011;-90
2023/10/22 01:10:09;;;;;;;7.68;1.70;;;12.90;99.90;;;;;;6280060;22;20092;-89
2023/10/22 01:12:35;;;;;;;4.40;1.40;;;13.80;99.90;;;;;;6285111;22;20014;-90
2023/10/22 01:15:01;;;;;;;6.65;1.65;;;13.60;99.90;;;;;;6311745;22;20443;-90
2023/10/22 01:17:27;;;;;;;7.57;1.73;;;14.20;99.90;;;;;;6315136;22;20081;-89
2023/10/22 01:19:53;;;;;;;6.60;1.50;;;14.20;99.90;;;;;;6317452;22;20014;-89
2023/10/22 01:22:18;;;;;;;6.07;1.42;;;14.30;99.90;;;;;;6311085;22;20018;-88
2023/10/22 01:24:44;;;;;;;5.72;1.60;;;13.40;99.90;;;;;;6311374;22;20010;-90
2023/10/22 01:27:10;;;;;;;5.30;1.50;;;14.00;99.90;;;;;;6310302;22;20040;-90
2023/10/22 01:29:35;;;;;;;10.07;1.92;;;13.00;99.90;;;;;;6312210;22;20085;-89
2023/10/22 01:32:01;;;;;;;6.18;1.77;;;14.00;99.90;;;;;;6310397;22;20063;-90
2023/10/22 01:34:32;;;;;;;6.60;1.50;;;12.90;99.90;;;;;;6313129;22;20027;-89
2023/10/22 01:36:58;;;;;;;7.65;1.60;;;13.10;99.90;;;;;;6311140;22;20011;-90
2023/10/22 01:39:24;;;;;;;7.90;1.60;;;13.20;99.90;;;;;;6310072;22;20223;-89
2023/10/22 01:41:51;;;;;;;6.25;1.50;;;12.70;99.90;;;;;;6313251;22;20007;-90
2023/10/22 01:44:16;;;;;;;7.97;1.77;;;12.80;99.90;;;;;;6311297;22;20030;-89
2023/10/22 01:46:42;;;;;;;6.05;1.63;;;12.50;99.90;;;;;;6310235;22;20015;-90
2023/10/22 01:49:08;;;;;;;5.40;1.50;;;13.70;99.90;;;;;;6310612;22;20011;-89
2023/10/22 01:51:34;;;;;;;6.72;1.70;;;13.40;99.90;;;;;;6311083;22;20112;-90
2023/10/22 01:54:01;;;;;;;7.47;1.80;;;12.30;99.90;;;;;;6308748;22;20038;-89
2023/10/22 01:56:26;;;;;;;2.97;1.25;;;12.20;99.90;;;;;;6310604;22;20015;-88
2023/10/22 01:58:52;;;;;;;7.40;1.52;;;13.50;99.90;;;;;;6311405;22;20017;-89
2023/10/22 02:01:18;;;;;;;7.22;1.50;;;13.50;99.90;;;;;;6310040;22;20465;-90
2023/10/22 02:03:47;;;;;;;6.82;1.70;;;12.20;99.90;;;;;;6311176;22;20101;-89
2023/10/22 02:08:41;;;;;;;5.90;1.58;;;12.20;99.90;;;;;;6331971;22;20023;-89
2023/10/22 02:11:07;;;;;;;5.10;1.38;;;13.40;99.90;;;;;;6311173;22;20097;-88
2023/10/22 02:13:33;;;;;;;4.80;1.45;;;11.80;99.90;;;;;;6311622;22;20395;-89
2023/10/22 02:15:58;;;;;;;7.82;1.70;;;12.30;99.90;;;;;;6310224;22;20049;-89
2023/10/22 02:18:24;;;;;;;4.53;1.40;;;12.70;99.90;;;;;;6311183;22;20034;-89
2023/10/22 02:21:00;;;;;;;5.88;1.50;;;13.50;99.90;;;;;;6310547;22;20022;-89
2023/10/22 02:23:27;;;;;;;6.15;1.77;;;12.30;99.90;;;;;;6309689;22;20450;-88
2023/10/22 02:25:53;;;;;;;7.65;1.63;;;12.90;99.90;;;;;;6310860;22;20050;-88
2023/10/22 02:28:19;;;;;;;6.13;1.40;;;13.10;99.90;;;;;;6309458;22;20089;-88
2023/10/22 02:30:47;;;;;;;6.38;1.75;;;12.40;99.90;;;;;;6311199;22;20499;-88
2023/10/22 02:33:13;;;;;;;7.40;1.80;;;13.70;99.90;;;;;;6310406;22;20087;-89
2023/10/22 02:35:43;;;;;;;5.05;1.35;;;13.70;99.90;;;;;;6310035;22;20077;-88
2023/10/22 02:38:16;;;;;;;6.05;1.60;;;13.40;99.90;;;;;;6309852;22;20018;-88
2023/10/22 02:47:27;;;;;;;6.40;1.50;;;12.10;99.90;;;;;;6337968;22;20018;-88
2023/10/22 02:49:54;;;;;;;4.72;1.38;;;13.20;99.90;;;;;;6314552;22;20015;-88
2023/10/22 02:52:19;;;;;;;5.07;1.30;;;12.40;99.90;;;;;;6310329;22;20015;-88
2023/10/22 02:54:45;;;;;;;6.50;1.60;;;13.70;99.90;;;;;;6310378;22;20007;-87
2023/10/22 02:57:11;;;;;;;5.35;1.50;;;13.30;99.90;;;;;;6309112;22;20389;-88
2023/10/22 02:59:36;;;;;;;5.68;1.50;;;13.00;99.90;;;;;;6310866;22;20065;-88
2023/10/22 03:02:02;;;;;;;7.07;1.60;;;12.40;99.90;;;;;;6310367;22;20022;-89
2023/10/22 03:04:28;;;;;;;8.48;1.58;;;12.50;99.90;;;;;;6309251;22;20015;-89
2023/10/22 03:06:53;;;;;;;6.65;1.50;;;12.50;99.90;;;;;;6338466;22;20417;-89
2023/10/22 03:09:19;;;;;;;7.30;1.52;;;13.70;99.90;;;;;;6310027;22;20104;-89
2023/10/22 03:11:44;;;;;;;6.28;1.70;;;13.00;99.90;;;;;;6309765;22;20011;-88
2023/10/22 03:14:10;;;;;;;4.28;1.40;;;13.00;99.90;;;;;;6310487;22;20398;-89
2023/10/22 03:16:36;;;;;;;4.40;1.45;;;12.50;99.90;;;;;;6310894;22;20087;-88
2023/10/22 03:19:04;;;;;;;6.32;2.05;;;13.10;99.90;;;;;;6309148;22;20029;-89
2023/10/22 03:21:35;;;;;;;14.95;2.08;;;12.50;99.90;;;;;;6310145;22;20015;-88
2023/10/22 03:24:03;;;;;;;5.93;1.50;;;13.70;99.90;;;;;;6310746;22;20510;-89
2023/10/22 03:26:30;;;;;;;6.93;1.60;;;12.80;99.90;;;;;;6308693;22;20015;-88
2023/10/22 03:28:55;;;;;;;6.38;1.60;;;13.60;99.90;;;;;;6310459;22;20022;-88
2023/10/22 03:31:21;;;;;;;6.50;1.60;;;13.70;99.90;;;;;;6309868;22;20369;-88
2023/10/22 03:33:47;;;;;;;7.68;1.50;;;12.90;99.90;;;;;;6310406;22;20015;-88
2023/10/22 03:36:14;;;;;;;9.88;1.60;;;12.90;99.90;;;;;;6311407;22;20059;-88
2023/10/22 03:38:40;;;;;;;6.30;1.73;;;13.80;99.90;;;;;;6311326;22;20093;-88
2023/10/22 03:41:06;;;;;;;5.38;1.75;;;12.60;99.90;;;;;;6312120;22;20010;-88
2023/10/22 03:43:34;;;;;;;6.10;1.50;;;12.40;99.90;;;;;;6316972;22;20037;-89
2023/10/22 03:46:01;;;;;;;7.13;1.63;;;13.20;99.90;;;;;;6332144;22;20078;-89
2023/10/22 03:48:27;;;;;;;5.13;1.70;;;13.60;99.90;;;;;;6331948;22;20006;-88
2023/10/22 03:50:54;;;;;;;6.78;1.95;;;13.30;99.90;;;;;;6317251;22;20015;-89
2023/10/22 03:53:21;;;;;;;5.65;1.70;;;12.60;99.90;;;;;;6312275;22;20018;-89
2023/10/22 03:55:47;;;;;;;7.93;1.65;;;12.40;99.90;;;;;;6312633;22;20007;-89
2023/10/22 04:00:57;;;;;;;5.78;1.60;;;12.10;99.90;;;;;;6310641;22;20046;-88
2023/10/22 04:03:22;;;;;;;5.28;1.70;;;12.10;99.90;;;;;;6311999;22;20338;-90
2023/10/22 04:05:58;;;;;;;5.70;1.70;;;13.30;99.90;;;;;;6311692;22;20006;-89
2023/10/22 04:08:25;;;;;;;5.18;1.60;;;11.90;99.90;;;;;;6311112;22;20015;-88
2023/10/22 04:10:51;;;;;;;8.05;1.90;;;11.90;99.90;;;;;;6311323;22;20443;-88
2023/10/22 04:13:17;;;;;;;5.78;1.70;;;11.90;99.90;;;;;;6311701;22;20014;-89
2023/10/22 04:15:45;;;;;;;7.88;1.70;;;12.50;99.90;;;;;;6311515;22;20026;-89
2023/10/22 04:18:11;;;;;;;5.40;1.70;;;11.90;99.90;;;;;;6311697;22;20342;-89
2023/10/22 04:20:36;;;;;;;6.35;1.75;;;12.20;99.90;;;;;;6347558;22;20015;-89
2023/10/22 04:23:11;;;;;;;5.75;1.83;;;13.10;99.90;;;;;;6313018;22;20427;-88
2023/10/22 04:25:40;;;;;;;5.20;1.70;;;11.90;99.90;;;;;;6311791;22;20025;-89
2023/10/22 04:28:24;;;;;;;4.35;1.65;;;11.90;99.90;;;;;;6310771;22;20015;-89
2023/10/22 04:30:49;;;;;;;4.70;1.55;;;13.40;99.90;;;;;;6312248;22;20015;-88
2023/10/22 04:33:15;;;;;;;5.68;2.10;;;11.90;99.90;;;;;;6311436;22;20316;-90
2023/10/22 04:35:41;;;;;;;7.60;2.15;;;13.00;99.90;;;;;;6313566;22;20068;-89
2023/10/22 04:38:06;;;;;;;4.97;1.60;;;11.80;99.90;;;;;;6312155;22;20026;-89
2023/10/22 04:40:33;;;;;;;7.20;1.88;;;12.90;99.90;;;;;;6311063;22;20435;-88
2023/10/22 04:42:58;;;;;;;6.22;1.98;;;11.80;99.90;;;;;;6312574;22;20379;-88
2023/10/22 04:45:24;;;;;;;6.70;1.90;;;11.70;99.90;;;;;;6311817;22;20469;-89
2023/10/22 04:47:50;;;;;;;7.32;2.08;;;12.90;99.90;;;;;;6311876;22;20018;-89
2023/10/22 04:50:15;;;;;;;6.53;2.03;;;12.80;99.90;;;;;;6310011;22;20343;-88
2023/10/22 04:52:41;;;;;;;5.47;2.00;;;11.70;99.90;;;;;;6339902;22;20186;-89
2023/10/22 04:55:11;;;;;;;6.55;2.35;;;12.10;99.90;;;;;;6312399;22;20469;-88
2023/10/22 04:57:36;;;;;;;7.97;2.05;;;11.70;99.90;;;;;;6311014;22;20106;-88
2023/10/22 05:00:11;;;;;;;9.10;2.60;;;12.80;99.90;;;;;;6311840;22;20050;-88
2023/10/22 05:02:37;;;;;;;8.00;2.33;;;11.70;99.90;;;;;;6312232;22;20022;-88
2023/10/22 05:05:03;;;;;;;6.75;2.38;;;12.40;99.90;;;;;;6339932;22;20335;-88
2023/10/22 05:07:29;;;;;;;7.28;2.28;;;11.70;99.90;;;;;;6311832;22;20095;-88
2023/10/22 05:09:55;;;;;;;7.35;2.20;;;11.70;99.90;;;;;;6311923;22;20023;-89
2023/10/22 05:12:20;;;;;;;7.32;2.15;;;12.40;99.90;;;;;;6311060;22;20080;-88
2023/10/22 05:14:46;;;;;;;7.68;2.10;;;12.20;99.90;;;;;;6312709;22;20328;-88
2023/10/22 05:17:13;;;;;;;8.98;2.38;;;11.60;99.90;;;;;;6311118;22;20041;-88
2023/10/22 05:19:39;;;;;;;7.95;2.53;;;12.90;99.90;;;;;;6311689;22;20011;-89
2023/10/22 05:22:04;;;;;;;8.38;2.20;;;12.80;99.90;;;;;;6312251;22;20374;-88
2023/10/22 05:24:30;;;;;;;6.72;2.40;;;12.50;99.90;;;;;;6311266;22;20323;-88
2023/10/22 05:26:56;;;;;;;7.25;2.60;;;12.70;99.90;;;;;;6312881;22;20022;-88
2023/10/22 05:29:41;;;;;;;9.23;2.60;;;12.50;99.90;;;;;;6312723;22;20109;-89
2023/10/22 05:32:21;;;;;;;6.60;2.40;;;12.80;99.90;;;;;;6319148;22;20382;-88
2023/10/22 05:34:47;;;;;;;8.73;2.53;;;11.60;99.90;;;;;;6313070;22;20098;-90
2023/10/22 05:37:13;;;;;;;8.98;2.50;;;12.90;99.90;;;;;;6340357;22;20093;-89
2023/10/22 05:39:38;;;;;;;8.45;2.40;;;11.60;99.90;;;;;;6313219;22;20443;-89
2023/10/22 05:42:05;;;;;;;7.13;2.30;;;12.20;99.90;;;;;;6340979;22;20030;-90
2023/10/22 05:44:31;;;;;;;7.00;2.40;;;11.50;99.90;;;;;;6312635;22;20037;-88
2023/10/22 05:46:56;;;;;;;7.43;2.45;;;11.60;99.90;;;;;;6313825;22;20443;-88
2023/10/22 05:49:22;;;;;;;6.40;2.22;;;12.80;99.90;;;;;;6312486;22;20023;-89
2023/10/22 05:51:49;;;;;;;6.90;2.33;;;12.70;99.90;;;;;;6318230;22;20357;-89
2023/10/22 05:54:15;;;;;;;6.90;2.30;;;13.00;99.90;;;;;;6311122;22;20090;-87
2023/10/22 05:56:41;;;;;;;8.23;2.30;;;11.60;99.90;;;;;;6311603;22;20046;-86
2023/10/22 06:00:03;;;;;;;6.55;2.25;;;11.60;99.90;;;;;;6312054;22;20077;-85
2023/10/22 06:05:27;;;;;;;6.75;2.42;;;11.00;99.90;;;;;;6342174;22;20025;-85
2023/10/22 06:07:52;;;;;;;6.90;2.60;;;11.50;99.90;;;;;;6310121;22;20097;-85
2023/10/22 06:10:18;;;;;;;6.80;2.47;;;12.40;99.90;;;;;;6310032;22;20019;-85
2023/10/22 06:12:44;;;;;;;7.22;2.80;;;13.00;99.90;;;;;;6311134;22;20026;-85
2023/10/22 06:15:16;;;;;;;6.53;2.60;;;13.00;99.90;;;;;;6310125;22;20014;-86
2023/10/22 06:17:41;;;;;;;7.25;2.50;;;12.70;99.90;;;;;;6338001;22;20014;-86
2023/10/22 06:20:07;;;;;;;7.60;2.60;;;12.70;99.90;;;;;;6310369;22;20076;-84
2023/10/22 06:22:33;;;;;;;8.32;2.80;;;11.40;99.90;;;;;;6310011;22;20499;-85
2023/10/22 06:24:59;;;;;;;6.43;2.50;;;12.20;99.90;;;;;;6311317;22;20010;-86
2023/10/22 06:27:24;;;;;;;7.80;2.50;;;12.80;99.90;;;;;;6310368;22;20015;-85
2023/10/22 06:29:53;;;;;;;10.63;3.20;;;12.70;99.90;;;;;;6337814;22;20046;-86
2023/10/22 06:32:18;;;;;;;8.55;2.90;;;12.70;99.90;;;;;;6310067;22;20029;-86
2023/10/22 06:34:44;;;;;;;10.35;3.40;;;11.30;99.90;;;;;;6309969;22;20093;-86
2023/10/22 06:37:11;;;;;;;9.73;3.55;;;12.30;99.90;;;;;;6310290;22;20439;-86
2023/10/22 06:39:36;;;;;;;12.13;4.43;;;12.40;99.90;;;;;;6311226;22;20090;-88
2023/10/22 06:42:03;;;;;;;11.73;4.50;;;12.10;99.90;;;;;;6310702;22;20057;-85
2023/10/22 06:44:28;;;;;;;9.98;4.57;;;11.20;99.90;;;;;;6338553;22;20026;-86
2023/10/22 06:50:32;;;;;;;19.23;14.60;;;10.80;99.90;;;;;;6328080;22;20022;-86
2023/10/22 06:53:07;;;;;;;11.55;5.40;;;12.70;99.90;;;;;;6342107;22;20316;-86
2023/10/22 06:55:33;;;;;;;16.70;10.32;;;11.20;99.90;;;;;;6339547;22;20107;-86
2023/10/22 06:57:59;;;;;;;13.77;8.45;;;11.10;99.90;;;;;;6311242;22;20050;-86
2023/10/22 07:00:27;;;;;;;15.43;9.55;;;11.00;99.90;;;;;;6311261;22;20434;-87
2023/10/22 07:02:53;;;;;;;21.33;16.98;;;11.60;99.90;;;;;;6310310;22;20018;-87
2023/10/22 07:05:19;;;;;;;12.13;4.93;;;12.10;99.90;;;;;;6310988;22;20014;-87
2023/10/22 07:07:47;;;;;;;11.82;4.38;;;11.10;99.90;;;;;;6309747;22;20481;-86
2023/10/22 07:10:31;;;;;;;14.13;8.48;;;11.10;99.90;;;;;;6308867;22;20019;-87
2023/10/22 07:12:57;;;;;;;13.15;6.38;;;11.00;99.90;;;;;;6310315;22;20351;-86
2023/10/22 07:15:24;;;;;;;13.52;8.57;;;12.40;99.90;;;;;;6310143;22;20015;-87
2023/10/22 07:17:51;;;;;;;11.90;5.68;;;12.40;99.90;;;;;;6309680;22;20018;-86
2023/10/22 07:20:23;;;;;;;12.15;7.15;;;12.40;99.90;;;;;;6310499;22;20015;-86
2023/10/22 07:22:48;;;;;;;41.20;31.70;;;11.00;99.90;;;;;;6311041;22;20019;-86
2023/10/22 07:25:15;;;;;;;15.07;8.43;;;12.10;99.90;;;;;;6312522;22;20011;-87
2023/10/22 07:27:41;;;;;;;11.23;4.72;;;11.00;99.90;;;;;;6311512;22;20029;-86
2023/10/22 07:30:08;;;;;;;18.17;12.02;;;12.40;99.90;;;;;;6311507;22;20056;-86
2023/10/22 07:32:33;;;;;;;12.88;6.70;;;11.10;99.90;;;;;;6309783;22;20029;-86
2023/10/22 07:35:14;;;;;;;13.30;5.75;;;11.20;99.90;;;;;;6310332;22;20082;-85
2023/10/22 07:37:42;;;;;;;12.77;4.85;;;11.10;99.90;;;;;;6339801;22;20014;-86
2023/10/22 07:40:08;;;;;;;9.70;4.43;;;12.10;99.90;;;;;;6309176;22;20015;-85
2023/10/22 07:42:34;;;;;;;11.98;7.18;;;11.20;99.90;;;;;;6310329;22;20095;-87
2023/10/22 07:45:00;;;;;;;12.20;5.78;;;12.50;99.90;;;;;;6310342;22;20049;-85
2023/10/22 07:48:05;;;;;;;13.40;5.10;;;11.10;99.90;;;;;;6309836;22;20073;-86
2023/10/22 07:50:31;;;;;;;16.08;6.90;;;11.20;99.90;;;;;;6310005;22;20466;-86
2023/10/22 07:52:57;;;;;;;14.52;8.20;;;11.30;99.90;;;;;;6335397;22;20022;-85
2023/10/22 07:55:25;;;;;;;14.02;8.95;;;12.40;99.90;;;;;;6309291;22;20322;-90
2023/10/22 07:57:54;;;;;;;13.45;6.53;;;11.20;99.90;;;;;;6336653;22;20011;-87
2023/10/22 08:00:19;;;;;;;14.25;6.00;;;12.40;99.90;;;;;;6309150;22;20080;-86
2023/10/22 08:02:45;;;;;;;13.15;6.47;;;11.40;99.90;;;;;;6337223;22;20445;-86
2023/10/22 08:05:11;;;;;;;14.85;7.07;;;11.50;99.90;;;;;;6309358;22;20110;-87
2023/10/22 08:07:36;;;;;;;13.63;8.57;;;12.10;99.90;;;;;;6336670;22;20014;-86
2023/10/22 08:10:02;;;;;;;22.10;15.93;;;12.10;99.90;;;;;;6310369;22;20419;-87
2023/10/22 08:12:28;;;;;;;12.77;6.78;;;11.50;99.90;;;;;;6310054;22;20019;-86
2023/10/22 08:14:54;;;;;;;16.00;6.88;;;11.50;99.90;;;;;;6309944;22;20019;-86
2023/10/22 08:17:19;;;;;;;12.40;6.15;;;12.90;99.90;;;;;;6309959;22;20048;-87
2023/10/22 08:19:45;;;;;;;15.57;8.30;;;11.60;99.90;;;;;;6311229;22;20019;-88
2023/10/22 08:22:10;;;;;;;18.73;9.88;;;12.50;99.90;;;;;;6310818;22;20417;-86
2023/10/22 08:24:36;;;;;;;23.38;16.40;;;11.60;99.90;;;;;;6310568;22;20017;-85
2023/10/22 08:27:02;;;;;;;16.48;9.25;;;12.80;99.90;;;;;;6310929;22;20014;-86
2023/10/22 08:29:37;;;;;;;18.90;10.25;;;11.70;99.90;;;;;;6311320;22;20027;-89
2023/10/22 08:32:55;;;;;;;14.00;6.22;;;11.40;99.90;;;;;;6311449;22;20041;-88
2023/10/22 08:35:21;;;;;;;44.08;29.50;;;11.80;99.90;;;;;;6310173;22;20025;-89
2023/10/22 08:37:47;;;;;;;11.10;5.53;;;13.00;99.90;;;;;;6339674;22;20014;-86
2023/10/22 08:40:13;;;;;;;12.00;5.55;;;11.00;99.90;;;;;;6309770;22;20491;-89
2023/10/22 08:42:39;;;;;;;20.30;12.80;;;12.90;99.90;;;;;;6313175;22;20029;-89
2023/10/22 08:48:16;;;;;;;12.23;4.93;;;11.80;99.90;;;;;;6318712;22;20084;-89
2023/10/22 08:56:46;;;;;;;26.92;18.33;;;12.50;99.90;;;;;;6302591;22;20022;-89
2023/10/22 08:59:12;;;;;;;19.23;11.73;;;13.20;99.90;;;;;;6316405;22;20015;-90
2023/10/22 09:01:37;;;;;;;14.50;9.63;;;13.00;99.90;;;;;;6316190;22;20044;-90
2023/10/22 09:04:04;;;;;;;14.25;4.47;;;13.40;99.90;;;;;;6313581;22;20015;-88
2023/10/22 09:06:30;;;;;;;9.98;4.85;;;12.10;99.90;;;;;;6315246;22;20386;-88
2023/10/22 09:09:07;;;;;;;11.68;4.47;;;12.20;99.90;;;;;;6316744;22;20048;-88
2023/10/22 09:11:36;;;;;;;13.50;6.78;;;13.50;99.90;;;;;;6313988;22;20011;-88
2023/10/22 09:14:20;;;;;;;10.82;4.07;;;12.30;99.90;;;;;;6314488;22;20014;-91
2023/10/22 09:16:46;;;;;;;21.15;13.70;;;13.60;99.90;;;;;;6317898;22;20089;-87
2023/10/22 09:22:24;;;;;;;21.88;12.55;;;12.50;99.90;;;;;;6341098;22;20335;-86
2023/10/22 09:24:53;;;;;;;21.55;11.45;;;12.40;99.90;;;;;;6314874;22;20023;-86
2023/10/22 09:27:26;;;;;;;13.85;5.38;;;13.70;99.90;;;;;;6310938;22;20015;-86
2023/10/22 09:29:53;;;;;;;14.50;6.43;;;12.30;99.90;;;;;;6313889;22;20019;-86
2023/10/22 09:32:21;;;;;;;40.88;22.20;;;13.60;99.90;;;;;;6311091;22;20025;-85
2023/10/22 09:34:48;;;;;;;20.73;10.68;;;13.70;99.90;;;;;;6313467;22;20018;-86
2023/10/22 09:37:14;;;;;;;17.38;7.20;;;13.00;99.90;;;;;;6339951;22;20029;-85
2023/10/22 09:39:44;;;;;;;8.43;3.10;;;12.80;99.90;;;;;;6311273;22;20010;-86
2023/10/22 09:42:12;;;;;;;17.73;8.88;;;12.60;99.90;;;;;;6313470;22;20090;-86
2023/10/22 09:44:39;;;;;;;11.23;3.40;;;14.20;99.90;;;;;;6327904;22;20058;-86
2023/10/22 09:47:06;;;;;;;12.52;5.88;;;13.00;99.90;;;;;;6337706;22;20042;-86
2023/10/22 09:49:59;;;;;;;14.35;5.85;;;13.60;99.90;;;;;;6343174;22;20007;-86
2023/10/22 09:52:42;;;;;;;29.15;16.17;;;12.60;99.90;;;;;;6314695;22;20086;-87
2023/10/22 09:55:13;;;;;;;10.55;4.35;;;14.20;99.90;;;;;;6312829;22;20099;-87
2023/10/22 09:57:40;;;;;;;21.55;12.65;;;14.30;99.90;;;;;;6312521;22;20018;-87
2023/10/22 10:00:51;;;;;;;12.98;7.28;;;14.40;99.90;;;;;;6310982;22;20029;-86
2023/10/22 10:06:39;;;;;;;9.95;3.35;;;13.10;99.90;;;;;;6218994;23;20016;-86
2023/10/22 10:09:13;;;;;;;11.05;3.30;;;13.00;99.90;;;;;;6217697;23;20043;-87
2023/10/22 10:11:39;;;;;;;9.85;3.63;;;14.20;99.90;;;;;;6217658;23;20406;-86
2023/10/22 10:14:12;;;;;;;10.15;3.63;;;14.20;99.90;;;;;;6242382;23;20016;-87
2023/10/22 10:16:42;;;;;;;11.07;5.40;;;12.90;99.90;;;;;;6217796;23;20028;-86
2023/10/22 10:20:11;;;;;;;13.20;4.72;;;14.30;99.90;;;;;;6219169;23;20472;-86
2023/10/22 10:23:04;;;;;;;11.18;5.97;;;12.70;99.90;;;;;;6093460;23;20021;-85
2023/10/22 10:25:31;;;;;;;10.30;5.40;;;12.70;99.90;;;;;;6206744;22;20015;-86
2023/10/22 10:28:13;;;;;;;9.75;4.40;;;14.00;99.90;;;;;;6280330;22;20015;-87
2023/10/22 10:31:38;;;;;;;9.73;4.43;;;13.00;99.90;;;;;;6277079;22;20094;-87
2023/10/22 10:34:39;;;;;;;11.23;4.70;;;12.60;99.90;;;;;;6279169;22;20015;-90
2023/10/22 10:53:00;;;;;;;11.50;4.25;;;13.70;99.90;;;;;;6305571;22;20080;-88
2023/10/22 10:55:54;;;;;;;9.23;3.80;;;14.70;99.90;;;;;;6310252;22;20019;-91
2023/10/22 10:58:19;;;;;;;8.38;3.95;;;13.30;99.90;;;;;;6280759;22;20015;-89
2023/10/22 11:01:00;;;;;;;9.15;4.10;;;14.60;99.90;;;;;;6280238;22;20328;-87
2023/10/22 11:03:34;;;;;;;9.43;4.25;;;13.70;99.90;;;;;;6279189;22;20022;-88
2023/10/22 11:06:10;;;;;;;8.65;4.10;;;14.00;99.90;;;;;;6283620;22;20356;-88
2023/10/22 11:08:36;;;;;;;12.93;4.47;;;13.50;99.90;;;;;;6338321;22;20026;-90
2023/10/22 11:11:30;;;;;;;;;;;;;;;;;;;;;
2023/10/22 11:14:12;;;;;;;9.32;3.80;;;13.80;99.90;;;;;;6309143;22;20022;-88
2023/10/22 11:43:31;;;;;;;10.48;3.50;;;13.70;99.90;;;;;;6330531;22;20034;-86
2023/10/22 11:46:50;;;;;;;14.15;8.88;;;13.80;99.90;;;;;;6310362;22;20022;-86
2023/10/22 11:49:16;;;;;;;10.57;4.50;;;13.50;99.90;;;;;;6309939;22;20018;-86
2023/10/22 11:51:43;;;;;;;11.30;6.15;;;13.70;99.90;;;;;;6309820;22;20052;-86
2023/10/22 11:54:11;;;;;;;12.40;6.50;;;14.00;99.90;;;;;;6310565;22;20384;-86
2023/10/22 11:56:37;;;;;;;11.60;6.03;;;13.70;99.90;;;;;;6316459;22;20334;-86
2023/10/22 11:59:04;;;;;;;16.27;10.05;;;13.90;99.90;;;;;;6312698;22;20026;-86
2023/10/22 12:01:33;;;;;;;10.07;4.35;;;13.50;99.90;;;;;;6285451;22;20015;-86
2023/10/22 12:04:04;;;;;;;13.18;7.13;;;13.50;99.90;;;;;;6312400;22;20019;-86
2023/10/22 12:06:33;;;;;;;10.77;5.20;;;12.90;99.90;;;;;;6311853;22;20069;-86
2023/10/22 12:08:58;;;;;;;11.55;5.18;;;14.60;99.90;;;;;;6317799;22;20023;-86
2023/10/22 12:11:53;;;;;;;10.15;3.38;;;13.60;99.90;;;;;;6313070;22;20014;-92
2023/10/22 12:14:21;;;;;;;9.40;3.85;;;13.30;99.90;;;;;;6311446;22;20026;-86
2023/10/22 12:17:10;;;;;;;12.68;6.57;;;13.20;99.90;;;;;;6312768;22;20354;-86
2023/10/22 12:19:36;;;;;;;10.98;6.20;;;13.00;99.90;;;;;;6288540;22;20010;-86
2023/10/22 12:22:02;;;;;;;10.07;6.95;;;13.10;99.90;;;;;;6311998;22;20313;-89
2023/10/22 12:24:53;;;;;;;11.80;5.57;;;13.10;99.90;;;;;;6310687;22;20748;-87
2023/10/22 12:27:34;;;;;;;9.45;3.70;;;13.00;99.90;;;;;;6262563;22;20022;-88
2023/10/22 12:30:02;;;;;;;7.47;2.20;;;14.10;99.90;;;;;;6312451;22;20022;-89
2023/10/22 12:32:31;;;;;;;8.55;2.50;;;12.90;99.90;;;;;;6309257;22;20018;-88
2023/10/22 12:34:57;;;;;;;8.52;3.17;;;13.60;99.90;;;;;;6304189;22;20046;-88
2023/10/22 12:37:23;;;;;;;8.18;2.75;;;13.70;99.90;;;;;;6314674;22;20080;-88
2023/10/22 12:39:51;;;;;;;8.07;3.13;;;12.80;99.90;;;;;;6335066;22;20029;-88
2023/10/22 12:42:52;;;;;;;10.35;4.38;;;12.80;99.90;;;;;;6326738;22;20068;-89
2023/10/22 12:45:18;;;;;;;14.38;7.65;;;12.80;99.90;;;;;;6213460;22;20026;-88
2023/10/22 12:50:52;;;;;;;5.72;2.05;;;12.90;99.90;;;;;;6318128;22;20215;-88
2023/10/22 12:53:18;;;;;;;6.38;2.45;;;14.00;99.90;;;;;;6309231;22;20014;-88
2023/10/22 12:56:13;;;;;;;6.82;2.50;;;14.00;99.90;;;;;;6310335;22;20385;-88
2023/10/22 12:58:55;;;;;;;7.70;2.08;;;13.30;99.90;;;;;;6291085;22;20482;-91
2023/10/22 13:01:22;;;;;;;4.15;1.40;;;12.90;99.90;;;;;;6309843;22;20076;-88
2023/10/22 13:04:01;;;;;;;;;;;;;;;;;;;;;
2023/10/22 13:07:10;;;;;;;5.63;2.33;;;13.10;99.90;;;;;;6213224;22;20114;-87
2023/10/22 13:09:36;;;;;;;5.32;1.83;;;12.50;99.90;;;;;;6271826;22;20019;-86
2023/10/22 13:12:11;;;;;;;5.80;1.55;;;13.90;99.90;;;;;;6273344;22;20096;-85
2023/10/22 13:14:37;;;;;;;4.38;1.60;;;12.60;99.90;;;;;;6270408;22;20016;-87
2023/10/22 13:17:21;;;;;;;4.43;1.60;;;13.20;99.90;;;;;;6269718;22;20390;-87
2023/10/22 13:19:52;;;;;;;5.68;1.70;;;13.30;99.90;;;;;;6272068;22;20012;-86
2023/10/22 13:25:16;;;;;;;6.90;1.80;;;13.70;99.90;;;;;;6272504;22;20023;-87
2023/10/22 13:28:12;;;;;;;4.20;1.63;;;13.80;99.90;;;;;;6276071;22;20430;-86
2023/10/22 13:30:40;;;;;;;6.57;2.38;;;13.60;99.90;;;;;;6273570;22;20099;-86
2023/10/22 13:33:35;;;;;;;5.18;1.58;;;13.50;99.90;;;;;;6274657;22;20019;-87
2023/10/22 13:39:42;;;;;;;6.03;1.60;;;13.20;99.90;;;;;;6278929;22;20323;-90
2023/10/22 13:42:16;;;;;;;7.07;1.98;;;13.10;99.90;;;;;;6280051;22;20027;-88
2023/10/22 13:45:01;;;;;;;7.25;1.77;;;14.30;99.90;;;;;;6279169;22;20076;-88
2023/10/22 13:51:31;;;;;;;5.40;1.63;;;13.10;99.90;;;;;;6303934;22;20072;-88
2023/10/22 13:54:16;;;;;;;7.38;1.60;;;13.50;99.90;;;;;;6277659;22;20344;-87
2023/10/22 13:56:42;;;;;;;4.57;1.73;;;13.40;99.90;;;;;;6276335;22;20019;-88
2023/10/22 13:59:12;;;;;;;6.82;1.70;;;14.10;99.90;;;;;;6276644;22;20022;-87
2023/10/22 14:01:44;;;;;;;6.10;1.60;;;13.30;99.90;;;;;;6275972;22;20015;-87
2023/10/22 14:04:10;;;;;;;8.18;1.92;;;12.70;99.90;;;;;;6277095;22;20112;-88
2023/10/22 14:06:35;;;;;;;5.82;1.70;;;13.20;99.90;;;;;;6277360;22;20019;-88
2023/10/22 14:09:01;;;;;;;5.10;1.63;;;13.30;99.90;;;;;;6277160;22;20050;-86
2023/10/22 14:11:52;;;;;;;6.53;1.73;;;13.20;99.90;;;;;;6279494;22;20271;-86
2023/10/22 14:17:52;;;;;;;;;;;13.20;99.90;;;;;;6307175;22;20023;-87
2023/10/22 14:23:37;;;;;;;5.05;1.48;;;14.10;99.90;;;;;;6278049;22;20023;-86
2023/10/22 14:26:12;;;;;;;5.90;1.70;;;13.50;99.90;;;;;;6256265;22;20019;-86
2023/10/22 14:28:44;;;;;;;6.97;2.17;;;14.50;99.90;;;;;;6305378;22;20023;-86
2023/10/22 14:31:22;;;;;;;7.05;1.70;;;14.20;99.90;;;;;;6305521;22;20022;-86
2023/10/22 14:33:50;;;;;;;4.20;1.60;;;13.50;99.90;;;;;;6304981;22;20343;-86
2023/10/22 14:36:22;;;;;;;4.60;1.65;;;14.80;99.90;;;;;;6304132;22;20313;-87
2023/10/22 14:38:53;;;;;;;7.65;1.80;;;14.50;99.90;;;;;;6305208;22;20022;-86
2023/10/22 14:41:19;;;;;;;6.97;1.50;;;13.40;99.90;;;;;;6303325;22;20019;-86
2023/10/22 14:47:14;;;;;;;148.60;84.57;;;13.20;99.90;;;;;;6279870;22;20019;-86